sensor_id;sensor_type;location;lat;lon;timestamp;temperature;humidity
77613;DHT22;66777;52.282;5.960;2023-04-28T00:00:26;8.60;58.80
77613;DHT22;66777;52.282;5.960;2023-04-28T00:02:51;8.60;59.00
77613;DHT22;66777;52.282;5.960;2023-04-28T00:05:18;8.60;59.10
77613;DHT22;66777;52.282;5.960;2023-04-28T00:07:44;8.60;59.10
77613;DHT22;66777;52.282;5.960;2023-04-28T00:10:09;8.60;59.00
77613;DHT22;66777;52.282;5.960;2023-04-28T00:12:35;8.60;59.10
77613;DHT22;66777;52.282;5.960;2023-04-28T00:15:01;8.60;59.00
77613;DHT22;66777;52.282;5.960;2023-04-28T00:17:26;8.60;59.20
77613;DHT22;66777;52.282;5.960;2023-04-28T00:19:52;8.60;59.20
77613;DHT22;66777;52.282;5.960;2023-04-28T00:22:17;8.60;59.50
77613;DHT22;66777;52.282;5.960;2023-04-28T00:24:43;8.60;59.70
77613;DHT22;66777;52.282;5.960;2023-04-28T00:27:09;8.60;60.00
77613;DHT22;66777;52.282;5.960;2023-04-28T00:29:35;8.60;60.20
77613;DHT22;66777;52.282;5.960;2023-04-28T00:32:03;8.60;60.10
77613;DHT22;66777;52.282;5.960;2023-04-28T00:34:32;8.60;60.20
77613;DHT22;66777;52.282;5.960;2023-04-28T00:36:57;8.60;60.20
77613;DHT22;66777;52.282;5.960;2023-04-28T00:39:23;8.60;60.30
77613;DHT22;66777;52.282;5.960;2023-04-28T00:41:50;8.60;60.20
77613;DHT22;66777;52.282;5.960;2023-04-28T00:44:15;8.60;60.10
77613;DHT22;66777;52.282;5.960;2023-04-28T00:46:41;8.50;60.50
77613;DHT22;66777;52.282;5.960;2023-04-28T00:49:07;8.50;60.50
77613;DHT22;66777;52.282;5.960;2023-04-28T00:51:32;8.60;60.20
77613;DHT22;66777;52.282;5.960;2023-04-28T00:53:58;8.50;60.30
77613;DHT22;66777;52.282;5.960;2023-04-28T00:56:24;8.40;60.50
77613;DHT22;66777;52.282;5.960;2023-04-28T00:58:52;8.30;60.50
77613;DHT22;66777;52.282;5.960;2023-04-28T01:01:18;8.20;60.70
77613;DHT22;66777;52.282;5.960;2023-04-28T01:03:43;8.10;60.90
77613;DHT22;66777;52.282;5.960;2023-04-28T01:06:09;8.10;61.00
77613;DHT22;66777;52.282;5.960;2023-04-28T01:08:36;8.00;61.00
77613;DHT22;66777;52.282;5.960;2023-04-28T01:11:02;8.00;61.30
77613;DHT22;66777;52.282;5.960;2023-04-28T01:13:29;7.90;61.70
77613;DHT22;66777;52.282;5.960;2023-04-28T01:15:55;7.80;62.30
77613;DHT22;66777;52.282;5.960;2023-04-28T01:18:22;7.60;62.60
77613;DHT22;66777;52.282;5.960;2023-04-28T01:20:48;7.60;62.50
77613;DHT22;66777;52.282;5.960;2023-04-28T01:23:15;7.50;62.90
77613;DHT22;66777;52.282;5.960;2023-04-28T01:25:42;7.50;62.80
77613;DHT22;66777;52.282;5.960;2023-04-28T01:28:09;7.50;62.80
77613;DHT22;66777;52.282;5.960;2023-04-28T01:30:36;7.50;62.80
77613;DHT22;66777;52.282;5.960;2023-04-28T01:33:02;7.50;63.20
77613;DHT22;66777;52.282;5.960;2023-04-28T01:35:29;7.50;62.40
77613;DHT22;66777;52.282;5.960;2023-04-28T01:37:56;7.40;63.40
77613;DHT22;66777;52.282;5.960;2023-04-28T01:40:22;7.30;63.70
77613;DHT22;66777;52.282;5.960;2023-04-28T01:42:47;7.20;63.80
77613;DHT22;66777;52.282;5.960;2023-04-28T01:45:13;7.20;64.10
77613;DHT22;66777;52.282;5.960;2023-04-28T01:47:39;7.20;63.80
77613;DHT22;66777;52.282;5.960;2023-04-28T01:50:05;7.20;64.20
77613;DHT22;66777;52.282;5.960;2023-04-28T01:52:31;7.20;64.30
77613;DHT22;66777;52.282;5.960;2023-04-28T01:54:57;7.30;63.80
77613;DHT22;66777;52.282;5.960;2023-04-28T01:57:23;7.30;63.90
77613;DHT22;66777;52.282;5.960;2023-04-28T01:59:49;7.40;64.40
77613;DHT22;66777;52.282;5.960;2023-04-28T02:02:15;7.40;64.30
77613;DHT22;66777;52.282;5.960;2023-04-28T02:04:41;7.40;64.20
77613;DHT22;66777;52.282;5.960;2023-04-28T02:07:07;7.50;64.30
77613;DHT22;66777;52.282;5.960;2023-04-28T02:09:33;7.50;63.60
77613;DHT22;66777;52.282;5.960;2023-04-28T02:11:59;7.50;63.70
77613;DHT22;66777;52.282;5.960;2023-04-28T02:14:27;7.60;63.30
77613;DHT22;66777;52.282;5.960;2023-04-28T02:16:54;7.80;63.10
77613;DHT22;66777;52.282;5.960;2023-04-28T02:19:20;7.90;63.20
77613;DHT22;66777;52.282;5.960;2023-04-28T02:21:46;8.00;63.30
77613;DHT22;66777;52.282;5.960;2023-04-28T02:24:12;8.00;62.90
77613;DHT22;66777;52.282;5.960;2023-04-28T02:26:38;8.00;62.70
77613;DHT22;66777;52.282;5.960;2023-04-28T02:29:03;8.10;62.70
77613;DHT22;66777;52.282;5.960;2023-04-28T02:31:29;8.10;63.00
77613;DHT22;66777;52.282;5.960;2023-04-28T02:33:54;8.10;62.70
77613;DHT22;66777;52.282;5.960;2023-04-28T02:36:21;8.10;62.60
77613;DHT22;66777;52.282;5.960;2023-04-28T02:38:46;8.20;62.30
77613;DHT22;66777;52.282;5.960;2023-04-28T02:41:12;8.20;62.80
77613;DHT22;66777;52.282;5.960;2023-04-28T02:43:40;8.20;62.60
77613;DHT22;66777;52.282;5.960;2023-04-28T02:46:07;8.20;62.00
77613;DHT22;66777;52.282;5.960;2023-04-28T02:48:33;8.30;62.30
77613;DHT22;66777;52.282;5.960;2023-04-28T02:51:03;8.30;61.80
77613;DHT22;66777;52.282;5.960;2023-04-28T02:53:29;8.30;62.10
77613;DHT22;66777;52.282;5.960;2023-04-28T02:55:55;8.30;61.60
77613;DHT22;66777;52.282;5.960;2023-04-28T02:58:21;8.30;61.60
77613;DHT22;66777;52.282;5.960;2023-04-28T03:00:47;8.30;61.60
77613;DHT22;66777;52.282;5.960;2023-04-28T03:03:13;8.30;61.60
77613;DHT22;66777;52.282;5.960;2023-04-28T03:05:39;8.30;61.70
77613;DHT22;66777;52.282;5.960;2023-04-28T03:08:05;8.30;61.50
77613;DHT22;66777;52.282;5.960;2023-04-28T03:10:32;8.30;61.90
77613;DHT22;66777;52.282;5.960;2023-04-28T03:12:58;8.30;61.70
77613;DHT22;66777;52.282;5.960;2023-04-28T03:15:25;8.30;61.70
77613;DHT22;66777;52.282;5.960;2023-04-28T03:17:51;8.40;61.50
77613;DHT22;66777;52.282;5.960;2023-04-28T03:20:17;8.30;61.40
77613;DHT22;66777;52.282;5.960;2023-04-28T03:22:42;8.30;61.40
77613;DHT22;66777;52.282;5.960;2023-04-28T03:25:08;8.30;61.40
77613;DHT22;66777;52.282;5.960;2023-04-28T03:27:34;8.30;61.60
77613;DHT22;66777;52.282;5.960;2023-04-28T03:30:00;8.30;61.20
77613;DHT22;66777;52.282;5.960;2023-04-28T03:32:26;8.30;61.70
77613;DHT22;66777;52.282;5.960;2023-04-28T03:34:52;8.30;61.40
77613;DHT22;66777;52.282;5.960;2023-04-28T03:37:18;8.40;61.50
77613;DHT22;66777;52.282;5.960;2023-04-28T03:39:45;8.30;61.80
77613;DHT22;66777;52.282;5.960;2023-04-28T03:42:11;8.40;61.30
77613;DHT22;66777;52.282;5.960;2023-04-28T03:44:37;8.30;61.20
77613;DHT22;66777;52.282;5.960;2023-04-28T03:47:02;8.40;61.80
77613;DHT22;66777;52.282;5.960;2023-04-28T03:49:28;8.40;61.70
77613;DHT22;66777;52.282;5.960;2023-04-28T03:51:54;8.40;61.80
77613;DHT22;66777;52.282;5.960;2023-04-28T03:54:19;8.40;62.00
77613;DHT22;66777;52.282;5.960;2023-04-28T03:56:48;8.40;61.70
77613;DHT22;66777;52.282;5.960;2023-04-28T03:59:15;8.40;61.60
77613;DHT22;66777;52.282;5.960;2023-04-28T04:01:40;8.40;61.50
77613;DHT22;66777;52.282;5.960;2023-04-28T04:04:06;8.40;61.60
77613;DHT22;66777;52.282;5.960;2023-04-28T04:06:32;8.40;61.60
77613;DHT22;66777;52.282;5.960;2023-04-28T04:08:58;8.40;61.60
77613;DHT22;66777;52.282;5.960;2023-04-28T04:11:24;8.50;61.70
77613;DHT22;66777;52.282;5.960;2023-04-28T04:13:50;8.50;61.70
77613;DHT22;66777;52.282;5.960;2023-04-28T04:16:17;8.50;61.80
77613;DHT22;66777;52.282;5.960;2023-04-28T04:18:44;8.50;61.50
77613;DHT22;66777;52.282;5.960;2023-04-28T04:21:10;8.50;61.80
77613;DHT22;66777;52.282;5.960;2023-04-28T04:23:36;8.50;61.50
77613;DHT22;66777;52.282;5.960;2023-04-28T04:26:02;8.50;62.00
77613;DHT22;66777;52.282;5.960;2023-04-28T04:28:28;8.50;62.20
77613;DHT22;66777;52.282;5.960;2023-04-28T04:30:54;8.50;62.20
77613;DHT22;66777;52.282;5.960;2023-04-28T04:33:20;8.50;62.20
77613;DHT22;66777;52.282;5.960;2023-04-28T04:35:45;8.50;62.30
77613;DHT22;66777;52.282;5.960;2023-04-28T04:38:12;8.50;61.90
77613;DHT22;66777;52.282;5.960;2023-04-28T04:40:37;8.50;62.20
77613;DHT22;66777;52.282;5.960;2023-04-28T04:43:03;8.50;62.30
77613;DHT22;66777;52.282;5.960;2023-04-28T04:45:31;8.60;62.20
77613;DHT22;66777;52.282;5.960;2023-04-28T04:47:57;8.60;62.00
77613;DHT22;66777;52.282;5.960;2023-04-28T04:50:23;8.60;61.90
77613;DHT22;66777;52.282;5.960;2023-04-28T04:52:49;8.70;61.60
77613;DHT22;66777;52.282;5.960;2023-04-28T04:55:14;8.80;61.80
77613;DHT22;66777;52.282;5.960;2023-04-28T04:57:40;8.90;61.60
77613;DHT22;66777;52.282;5.960;2023-04-28T05:00:06;9.00;61.60
77613;DHT22;66777;52.282;5.960;2023-04-28T05:02:32;9.00;61.40
77613;DHT22;66777;52.282;5.960;2023-04-28T05:04:58;9.00;61.20
77613;DHT22;66777;52.282;5.960;2023-04-28T05:07:24;9.00;61.20
77613;DHT22;66777;52.282;5.960;2023-04-28T05:09:51;9.00;61.10
77613;DHT22;66777;52.282;5.960;2023-04-28T05:12:17;9.10;61.00
77613;DHT22;66777;52.282;5.960;2023-04-28T05:14:44;9.00;60.80
77613;DHT22;66777;52.282;5.960;2023-04-28T05:17:10;9.00;60.80
77613;DHT22;66777;52.282;5.960;2023-04-28T05:19:37;9.10;60.80
77613;DHT22;66777;52.282;5.960;2023-04-28T05:22:02;9.10;60.70
77613;DHT22;66777;52.282;5.960;2023-04-28T05:24:28;9.20;61.00
77613;DHT22;66777;52.282;5.960;2023-04-28T05:26:57;9.20;61.00
77613;DHT22;66777;52.282;5.960;2023-04-28T05:29:23;9.20;61.10
77613;DHT22;66777;52.282;5.960;2023-04-28T05:31:49;9.20;60.90
77613;DHT22;66777;52.282;5.960;2023-04-28T05:34:15;9.30;60.90
77613;DHT22;66777;52.282;5.960;2023-04-28T05:36:43;9.40;60.80
77613;DHT22;66777;52.282;5.960;2023-04-28T05:39:12;9.40;61.20
77613;DHT22;66777;52.282;5.960;2023-04-28T05:41:37;9.40;60.90
77613;DHT22;66777;52.282;5.960;2023-04-28T05:44:03;9.40;61.60
77613;DHT22;66777;52.282;5.960;2023-04-28T05:46:29;9.40;61.40
77613;DHT22;66777;52.282;5.960;2023-04-28T05:48:55;9.40;62.10
77613;DHT22;66777;52.282;5.960;2023-04-28T05:51:22;9.30;62.10
77613;DHT22;66777;52.282;5.960;2023-04-28T05:53:48;9.20;62.80
77613;DHT22;66777;52.282;5.960;2023-04-28T05:56:14;9.20;63.70
77613;DHT22;66777;52.282;5.960;2023-04-28T05:58:40;9.10;63.70
77613;DHT22;66777;52.282;5.960;2023-04-28T06:01:08;9.10;64.60
77613;DHT22;66777;52.282;5.960;2023-04-28T06:03:34;9.10;65.40
77613;DHT22;66777;52.282;5.960;2023-04-28T06:06:00;9.20;65.00
77613;DHT22;66777;52.282;5.960;2023-04-28T06:08:26;9.20;64.80
77613;DHT22;66777;52.282;5.960;2023-04-28T06:10:52;9.30;65.00
77613;DHT22;66777;52.282;5.960;2023-04-28T06:13:17;9.40;64.50
77613;DHT22;66777;52.282;5.960;2023-04-28T06:15:43;9.40;63.70
77613;DHT22;66777;52.282;5.960;2023-04-28T06:18:09;9.40;64.00
77613;DHT22;66777;52.282;5.960;2023-04-28T06:20:36;9.50;63.50
77613;DHT22;66777;52.282;5.960;2023-04-28T06:23:02;9.60;63.40
77613;DHT22;66777;52.282;5.960;2023-04-28T06:25:28;9.60;64.20
77613;DHT22;66777;52.282;5.960;2023-04-28T06:27:53;9.50;64.90
77613;DHT22;66777;52.282;5.960;2023-04-28T06:30:21;9.50;65.70
77613;DHT22;66777;52.282;5.960;2023-04-28T06:32:47;9.40;68.90
77613;DHT22;66777;52.282;5.960;2023-04-28T06:35:15;9.30;76.20
77613;DHT22;66777;52.282;5.960;2023-04-28T06:37:41;8.90;82.20
77613;DHT22;66777;52.282;5.960;2023-04-28T06:40:08;8.40;84.70
77613;DHT22;66777;52.282;5.960;2023-04-28T06:42:35;7.90;86.80
77613;DHT22;66777;52.282;5.960;2023-04-28T06:45:01;7.60;88.40
77613;DHT22;66777;52.282;5.960;2023-04-28T06:47:27;7.50;89.70
77613;DHT22;66777;52.282;5.960;2023-04-28T06:49:53;7.50;90.40
77613;DHT22;66777;52.282;5.960;2023-04-28T06:52:19;7.60;90.90
77613;DHT22;66777;52.282;5.960;2023-04-28T06:54:49;7.70;91.50
77613;DHT22;66777;52.282;5.960;2023-04-28T06:57:16;8.00;91.60
77613;DHT22;66777;52.282;5.960;2023-04-28T06:59:42;8.20;92.00
77613;DHT22;66777;52.282;5.960;2023-04-28T07:02:11;8.30;92.20
77613;DHT22;66777;52.282;5.960;2023-04-28T07:04:37;8.40;92.30
77613;DHT22;66777;52.282;5.960;2023-04-28T07:07:03;8.50;92.50
77613;DHT22;66777;52.282;5.960;2023-04-28T07:09:35;8.80;92.60
77613;DHT22;66777;52.282;5.960;2023-04-28T07:12:02;9.00;92.90
77613;DHT22;66777;52.282;5.960;2023-04-28T07:14:29;9.20;92.90
77613;DHT22;66777;52.282;5.960;2023-04-28T07:16:55;9.20;93.00
77613;DHT22;66777;52.282;5.960;2023-04-28T07:19:21;8.90;93.00
77613;DHT22;66777;52.282;5.960;2023-04-28T07:21:48;8.80;92.90
77613;DHT22;66777;52.282;5.960;2023-04-28T07:24:13;8.60;92.70
77613;DHT22;66777;52.282;5.960;2023-04-28T07:26:39;8.80;92.60
77613;DHT22;66777;52.282;5.960;2023-04-28T07:29:05;8.90;92.70
77613;DHT22;66777;52.282;5.960;2023-04-28T07:31:33;9.20;92.90
77613;DHT22;66777;52.282;5.960;2023-04-28T07:33:59;9.20;92.90
77613;DHT22;66777;52.282;5.960;2023-04-28T07:36:26;9.20;93.00
77613;DHT22;66777;52.282;5.960;2023-04-28T07:38:52;9.50;93.00
77613;DHT22;66777;52.282;5.960;2023-04-28T07:41:18;9.80;92.90
77613;DHT22;66777;52.282;5.960;2023-04-28T07:43:44;10.20;93.20
77613;DHT22;66777;52.282;5.960;2023-04-28T07:46:12;10.40;93.20
77613;DHT22;66777;52.282;5.960;2023-04-28T07:48:38;10.20;92.80
77613;DHT22;66777;52.282;5.960;2023-04-28T07:51:04;10.30;92.80
77613;DHT22;66777;52.282;5.960;2023-04-28T07:53:31;10.40;92.80
77613;DHT22;66777;52.282;5.960;2023-04-28T07:55:57;10.50;92.50
77613;DHT22;66777;52.282;5.960;2023-04-28T07:58:22;10.90;92.80
77613;DHT22;66777;52.282;5.960;2023-04-28T08:00:48;11.00;92.40
77613;DHT22;66777;52.282;5.960;2023-04-28T08:03:14;11.40;92.70
77613;DHT22;66777;52.282;5.960;2023-04-28T08:05:41;11.50;92.60
77613;DHT22;66777;52.282;5.960;2023-04-28T08:08:09;11.30;92.00
77613;DHT22;66777;52.282;5.960;2023-04-28T08:10:36;11.30;91.90
77613;DHT22;66777;52.282;5.960;2023-04-28T08:13:05;11.30;91.70
77613;DHT22;66777;52.282;5.960;2023-04-28T08:15:30;11.20;91.50
77613;DHT22;66777;52.282;5.960;2023-04-28T08:17:57;11.30;91.60
77613;DHT22;66777;52.282;5.960;2023-04-28T08:20:22;11.60;91.80
77613;DHT22;66777;52.282;5.960;2023-04-28T08:22:49;11.70;91.60
77613;DHT22;66777;52.282;5.960;2023-04-28T08:25:15;11.90;91.10
77613;DHT22;66777;52.282;5.960;2023-04-28T08:27:43;12.10;90.70
77613;DHT22;66777;52.282;5.960;2023-04-28T08:30:09;12.50;91.20
77613;DHT22;66777;52.282;5.960;2023-04-28T08:32:36;12.70;90.50
77613;DHT22;66777;52.282;5.960;2023-04-28T08:35:02;12.90;90.20
77613;DHT22;66777;52.282;5.960;2023-04-28T08:37:29;13.10;89.50
77613;DHT22;66777;52.282;5.960;2023-04-28T08:39:55;12.90;89.30
77613;DHT22;66777;52.282;5.960;2023-04-28T08:42:30;12.70;89.30
77613;DHT22;66777;52.282;5.960;2023-04-28T08:44:57;12.50;88.80
77613;DHT22;66777;52.282;5.960;2023-04-28T08:50:05;12.50;90.00
77613;DHT22;66777;52.282;5.960;2023-04-28T08:52:31;12.80;90.30
77613;DHT22;66777;52.282;5.960;2023-04-28T08:54:59;12.80;90.00
77613;DHT22;66777;52.282;5.960;2023-04-28T08:57:26;12.90;90.50
77613;DHT22;66777;52.282;5.960;2023-04-28T08:59:53;12.90;89.60
77613;DHT22;66777;52.282;5.960;2023-04-28T09:02:20;12.70;89.70
77613;DHT22;66777;52.282;5.960;2023-04-28T09:04:50;12.80;88.80
77613;DHT22;66777;52.282;5.960;2023-04-28T09:07:16;12.70;88.40
77613;DHT22;66777;52.282;5.960;2023-04-28T09:09:42;12.80;88.30
77613;DHT22;66777;52.282;5.960;2023-04-28T09:12:09;12.80;85.80
77613;DHT22;66777;52.282;5.960;2023-04-28T09:14:37;12.90;85.50
77613;DHT22;66777;52.282;5.960;2023-04-28T09:17:11;12.90;85.80
77613;DHT22;66777;52.282;5.960;2023-04-28T09:19:38;13.10;86.60
77613;DHT22;66777;52.282;5.960;2023-04-28T09:22:05;13.20;86.30
77613;DHT22;66777;52.282;5.960;2023-04-28T09:24:36;13.10;85.40
77613;DHT22;66777;52.282;5.960;2023-04-28T09:27:06;13.00;84.80
77613;DHT22;66777;52.282;5.960;2023-04-28T09:29:36;12.90;86.00
77613;DHT22;66777;52.282;5.960;2023-04-28T09:32:19;13.10;86.90
77613;DHT22;66777;52.282;5.960;2023-04-28T09:34:50;13.10;86.40
77613;DHT22;66777;52.282;5.960;2023-04-28T09:37:18;13.10;85.30
77613;DHT22;66777;52.282;5.960;2023-04-28T09:39:48;13.10;85.80
77613;DHT22;66777;52.282;5.960;2023-04-28T09:42:52;13.10;86.10
77613;DHT22;66777;52.282;5.960;2023-04-28T09:45:18;13.10;85.00
77613;DHT22;66777;52.282;5.960;2023-04-28T09:47:45;13.30;86.60
77613;DHT22;66777;52.282;5.960;2023-04-28T09:50:14;13.40;84.70
77613;DHT22;66777;52.282;5.960;2023-04-28T09:52:44;13.20;83.50
77613;DHT22;66777;52.282;5.960;2023-04-28T09:55:11;13.10;83.80
77613;DHT22;66777;52.282;5.960;2023-04-28T09:57:38;13.00;83.70
77613;DHT22;66777;52.282;5.960;2023-04-28T10:00:07;13.10;83.60
77613;DHT22;66777;52.282;5.960;2023-04-28T10:02:35;13.30;84.40
77613;DHT22;66777;52.282;5.960;2023-04-28T10:05:01;13.30;84.80
77613;DHT22;66777;52.282;5.960;2023-04-28T10:07:28;13.40;84.70
77613;DHT22;66777;52.282;5.960;2023-04-28T10:09:55;13.10;85.00
77613;DHT22;66777;52.282;5.960;2023-04-28T10:12:23;13.10;85.20
77613;DHT22;66777;52.282;5.960;2023-04-28T10:14:50;13.10;84.70
77613;DHT22;66777;52.282;5.960;2023-04-28T10:17:21;13.10;85.20
77613;DHT22;66777;52.282;5.960;2023-04-28T10:19:48;13.20;84.50
77613;DHT22;66777;52.282;5.960;2023-04-28T10:22:42;13.30;85.70
77613;DHT22;66777;52.282;5.960;2023-04-28T10:25:29;13.30;84.50
77613;DHT22;66777;52.282;5.960;2023-04-28T10:27:57;13.20;84.60
77613;DHT22;66777;52.282;5.960;2023-04-28T10:30:26;13.20;84.90
77613;DHT22;66777;52.282;5.960;2023-04-28T10:35:43;13.10;83.90
77613;DHT22;66777;52.282;5.960;2023-04-28T10:38:16;13.10;85.30
77613;DHT22;66777;52.282;5.960;2023-04-28T10:40:44;13.30;85.50
77613;DHT22;66777;52.282;5.960;2023-04-28T10:43:32;13.60;84.90
77613;DHT22;66777;52.282;5.960;2023-04-28T10:56:06;14.10;83.20
77613;DHT22;66777;52.282;5.960;2023-04-28T10:58:32;14.00;82.30
77613;DHT22;66777;52.282;5.960;2023-04-28T11:03:49;13.80;83.00
77613;DHT22;66777;52.282;5.960;2023-04-28T11:06:30;13.90;84.20
77613;DHT22;66777;52.282;5.960;2023-04-28T11:12:04;13.80;82.10
77613;DHT22;66777;52.282;5.960;2023-04-28T11:14:36;13.60;83.50
77613;DHT22;66777;52.282;5.960;2023-04-28T11:17:05;13.70;84.40
77613;DHT22;66777;52.282;5.960;2023-04-28T11:19:44;13.90;83.90
77613;DHT22;66777;52.282;5.960;2023-04-28T11:22:19;13.80;84.00
77613;DHT22;66777;52.282;5.960;2023-04-28T11:25:00;13.80;83.90
77613;DHT22;66777;52.282;5.960;2023-04-28T11:27:31;13.70;84.60
77613;DHT22;66777;52.282;5.960;2023-04-28T11:29:58;13.90;84.40
77613;DHT22;66777;52.282;5.960;2023-04-28T11:32:28;13.90;85.30
77613;DHT22;66777;52.282;5.960;2023-04-28T11:34:54;13.90;85.70
77613;DHT22;66777;52.282;5.960;2023-04-28T11:37:20;13.80;85.90
77613;DHT22;66777;52.282;5.960;2023-04-28T11:39:46;13.80;86.10
77613;DHT22;66777;52.282;5.960;2023-04-28T11:42:14;13.80;84.90
77613;DHT22;66777;52.282;5.960;2023-04-28T11:44:40;13.90;86.30
77613;DHT22;66777;52.282;5.960;2023-04-28T11:47:07;14.10;85.80
77613;DHT22;66777;52.282;5.960;2023-04-28T11:49:44;14.40;86.20
77613;DHT22;66777;52.282;5.960;2023-04-28T11:52:10;14.60;86.20
77613;DHT22;66777;52.282;5.960;2023-04-28T11:54:37;14.50;84.80
77613;DHT22;66777;52.282;5.960;2023-04-28T11:57:05;14.40;85.30
77613;DHT22;66777;52.282;5.960;2023-04-28T11:59:33;14.40;86.80
77613;DHT22;66777;52.282;5.960;2023-04-28T12:02:03;14.30;86.30
77613;DHT22;66777;52.282;5.960;2023-04-28T12:09:39;14.60;86.60
77613;DHT22;66777;52.282;5.960;2023-04-28T12:12:07;14.50;86.80
77613;DHT22;66777;52.282;5.960;2023-04-28T12:14:54;14.40;87.70
77613;DHT22;66777;52.282;5.960;2023-04-28T12:17:33;14.40;87.50
77613;DHT22;66777;52.282;5.960;2023-04-28T12:20:01;14.30;86.60
77613;DHT22;66777;52.282;5.960;2023-04-28T12:22:28;14.30;87.90
77613;DHT22;66777;52.282;5.960;2023-04-28T12:25:08;14.20;87.30
77613;DHT22;66777;52.282;5.960;2023-04-28T12:27:37;14.30;89.70
77613;DHT22;66777;52.282;5.960;2023-04-28T12:30:23;14.40;88.70
77613;DHT22;66777;52.282;5.960;2023-04-28T12:32:50;14.40;87.00
77613;DHT22;66777;52.282;5.960;2023-04-28T12:35:19;14.40;87.70
77613;DHT22;66777;52.282;5.960;2023-04-28T12:37:46;14.40;88.40
77613;DHT22;66777;52.282;5.960;2023-04-28T12:40:12;14.30;87.40
77613;DHT22;66777;52.282;5.960;2023-04-28T12:42:39;14.30;87.50
77613;DHT22;66777;52.282;5.960;2023-04-28T12:45:06;14.20;87.80
77613;DHT22;66777;52.282;5.960;2023-04-28T12:47:32;14.30;87.60
77613;DHT22;66777;52.282;5.960;2023-04-28T12:49:58;14.30;87.50
77613;DHT22;66777;52.282;5.960;2023-04-28T12:52:23;14.20;88.00
77613;DHT22;66777;52.282;5.960;2023-04-28T12:54:49;14.20;88.10
77613;DHT22;66777;52.282;5.960;2023-04-28T12:57:15;14.20;87.90
77613;DHT22;66777;52.282;5.960;2023-04-28T12:59:42;14.10;87.60
77613;DHT22;66777;52.282;5.960;2023-04-28T13:02:07;13.90;87.00
77613;DHT22;66777;52.282;5.960;2023-04-28T13:04:33;13.90;87.00
77613;DHT22;66777;52.282;5.960;2023-04-28T13:06:59;13.90;87.50
77613;DHT22;66777;52.282;5.960;2023-04-28T13:09:25;14.00;86.90
77613;DHT22;66777;52.282;5.960;2023-04-28T13:11:52;14.10;86.70
77613;DHT22;66777;52.282;5.960;2023-04-28T13:14:20;14.10;86.50
77613;DHT22;66777;52.282;5.960;2023-04-28T13:16:46;14.10;85.80
77613;DHT22;66777;52.282;5.960;2023-04-28T13:19:12;14.40;86.20
77613;DHT22;66777;52.282;5.960;2023-04-28T13:21:42;14.90;84.10
77613;DHT22;66777;52.282;5.960;2023-04-28T13:24:11;15.00;84.50
77613;DHT22;66777;52.282;5.960;2023-04-28T13:26:36;15.20;84.80
77613;DHT22;66777;52.282;5.960;2023-04-28T13:29:02;15.20;83.10
77613;DHT22;66777;52.282;5.960;2023-04-28T13:31:29;15.00;83.70
77613;DHT22;66777;52.282;5.960;2023-04-28T13:33:55;15.40;83.10
77613;DHT22;66777;52.282;5.960;2023-04-28T13:36:21;15.40;82.30
77613;DHT22;66777;52.282;5.960;2023-04-28T13:38:47;15.30;83.70
77613;DHT22;66777;52.282;5.960;2023-04-28T13:41:17;15.30;82.40
77613;DHT22;66777;52.282;5.960;2023-04-28T13:43:43;15.00;82.50
77613;DHT22;66777;52.282;5.960;2023-04-28T13:46:09;14.90;82.80
77613;DHT22;66777;52.282;5.960;2023-04-28T13:48:35;14.60;82.70
77613;DHT22;66777;52.282;5.960;2023-04-28T13:51:04;14.50;83.50
77613;DHT22;66777;52.282;5.960;2023-04-28T13:53:30;14.50;83.70
77613;DHT22;66777;52.282;5.960;2023-04-28T13:55:56;14.50;84.40
77613;DHT22;66777;52.282;5.960;2023-04-28T13:58:26;14.60;84.00
77613;DHT22;66777;52.282;5.960;2023-04-28T14:00:55;14.70;82.60
77613;DHT22;66777;52.282;5.960;2023-04-28T14:03:22;14.80;82.00
77613;DHT22;66777;52.282;5.960;2023-04-28T14:05:53;15.30;82.00
77613;DHT22;66777;52.282;5.960;2023-04-28T14:08:20;15.50;81.40
77613;DHT22;66777;52.282;5.960;2023-04-28T14:10:48;15.60;80.50
77613;DHT22;66777;52.282;5.960;2023-04-28T14:13:14;15.50;80.40
77613;DHT22;66777;52.282;5.960;2023-04-28T14:15:42;15.30;80.40
77613;DHT22;66777;52.282;5.960;2023-04-28T14:18:10;15.20;80.90
77613;DHT22;66777;52.282;5.960;2023-04-28T14:20:36;15.30;81.70
77613;DHT22;66777;52.282;5.960;2023-04-28T14:23:02;14.90;81.90
77613;DHT22;66777;52.282;5.960;2023-04-28T14:25:29;14.60;83.40
77613;DHT22;66777;52.282;5.960;2023-04-28T14:27:57;14.70;84.30
77613;DHT22;66777;52.282;5.960;2023-04-28T14:30:23;14.60;84.20
77613;DHT22;66777;52.282;5.960;2023-04-28T14:32:51;14.70;85.10
77613;DHT22;66777;52.282;5.960;2023-04-28T14:35:17;14.90;85.70
77613;DHT22;66777;52.282;5.960;2023-04-28T14:37:43;14.90;85.10
77613;DHT22;66777;52.282;5.960;2023-04-28T14:40:09;14.90;84.70
77613;DHT22;66777;52.282;5.960;2023-04-28T14:42:36;15.30;84.50
77613;DHT22;66777;52.282;5.960;2023-04-28T14:45:04;15.50;83.50
77613;DHT22;66777;52.282;5.960;2023-04-28T14:47:32;15.20;84.50
77613;DHT22;66777;52.282;5.960;2023-04-28T14:49:58;15.00;84.90
77613;DHT22;66777;52.282;5.960;2023-04-28T14:52:25;15.00;85.90
77613;DHT22;66777;52.282;5.960;2023-04-28T14:54:54;14.70;85.40
77613;DHT22;66777;52.282;5.960;2023-04-28T14:57:20;14.40;86.00
77613;DHT22;66777;52.282;5.960;2023-04-28T14:59:46;14.30;86.10
77613;DHT22;66777;52.282;5.960;2023-04-28T15:02:12;14.20;86.30
77613;DHT22;66777;52.282;5.960;2023-04-28T15:04:39;14.10;86.60
77613;DHT22;66777;52.282;5.960;2023-04-28T15:07:05;14.00;87.00
77613;DHT22;66777;52.282;5.960;2023-04-28T15:09:34;13.90;88.50
77613;DHT22;66777;52.282;5.960;2023-04-28T15:12:01;13.80;89.00
77613;DHT22;66777;52.282;5.960;2023-04-28T15:14:30;13.70;89.00
77613;DHT22;66777;52.282;5.960;2023-04-28T15:16:56;13.70;89.40
77613;DHT22;66777;52.282;5.960;2023-04-28T15:19:23;13.70;89.60
77613;DHT22;66777;52.282;5.960;2023-04-28T15:21:49;13.70;88.60
77613;DHT22;66777;52.282;5.960;2023-04-28T15:24:17;13.60;88.50
77613;DHT22;66777;52.282;5.960;2023-04-28T15:26:43;13.50;88.60
77613;DHT22;66777;52.282;5.960;2023-04-28T15:29:09;13.40;88.30
77613;DHT22;66777;52.282;5.960;2023-04-28T15:31:36;13.40;88.80
77613;DHT22;66777;52.282;5.960;2023-04-28T15:34:02;13.30;88.70
77613;DHT22;66777;52.282;5.960;2023-04-28T15:36:28;13.30;88.70
77613;DHT22;66777;52.282;5.960;2023-04-28T15:38:54;13.30;88.70
77613;DHT22;66777;52.282;5.960;2023-04-28T15:41:21;13.30;88.30
77613;DHT22;66777;52.282;5.960;2023-04-28T15:43:47;13.30;87.70
77613;DHT22;66777;52.282;5.960;2023-04-28T15:46:15;13.30;87.70
77613;DHT22;66777;52.282;5.960;2023-04-28T15:48:44;13.30;87.90
77613;DHT22;66777;52.282;5.960;2023-04-28T15:51:10;13.30;87.90
77613;DHT22;66777;52.282;5.960;2023-04-28T15:53:37;13.40;87.30
77613;DHT22;66777;52.282;5.960;2023-04-28T15:56:04;13.50;87.10
77613;DHT22;66777;52.282;5.960;2023-04-28T15:58:30;13.50;87.10
77613;DHT22;66777;52.282;5.960;2023-04-28T16:00:56;13.50;86.70
77613;DHT22;66777;52.282;5.960;2023-04-28T16:03:24;13.50;86.60